<?xml version="1.0" encoding="UTF-8" standalone="no" ?>
<gpx xmlns="http://www.topografix.com/GPX/1/1" xmlns:xsi="http://www.w3.org/2001/XMLSchema-instance" xsi:schemaLocation="http://www.topografix.com/GPX/1/1 http://www.topografix.com/GPX/1/1/gpx.xsd" version="1.1" creator="VisuGPX - https://www.visugpx.com">
  <metadata>
    <name>Trigavou St Jacut</name>
    <desc><![CDATA[Petites routes et chemins]]></desc>
  </metadata>
  <trk>
    <name><![CDATA[14 sept. 2014]]></name>
    <cmt><![CDATA[14:32:50]]></cmt>
    <desc><![CDATA[comment ...]]></desc>
    <trkseg>
      <trkpt lat="48.52469" lon="-2.0821">
        <ele>-48</ele>
        <time>2014-09-14T14:06:48Z</time>
      </trkpt>
      <trkpt lat="48.52481" lon="-2.08228">
        <ele>68</ele>
        <time>2014-09-14T14:33:36Z</time>
      </trkpt>
      <trkpt lat="48.52475" lon="-2.08233">
        <ele>64</ele>
        <time>2014-09-14T14:33:49Z</time>
      </trkpt>
      <trkpt lat="48.52473" lon="-2.08235">
        <ele>64</ele>
        <time>2014-09-14T14:33:55Z</time>
      </trkpt>
      <trkpt lat="48.52474" lon="-2.08245">
        <ele>65</ele>
        <time>2014-09-14T14:34:07Z</time>
      </trkpt>
      <trkpt lat="48.52466" lon="-2.08249">
        <ele>63</ele>
        <time>2014-09-14T14:34:13Z</time>
      </trkpt>
      <trkpt lat="48.5242" lon="-2.08241">
        <ele>63</ele>
        <time>2014-09-14T14:34:32Z</time>
      </trkpt>
      <trkpt lat="48.5241" lon="-2.08234">
        <ele>62</ele>
        <time>2014-09-14T14:34:37Z</time>
      </trkpt>
      <trkpt lat="48.52407" lon="-2.08208">
        <ele>52</ele>
        <time>2014-09-14T14:34:47Z</time>
      </trkpt>
      <trkpt lat="48.52405" lon="-2.08206">
        <ele>55</ele>
        <time>2014-09-14T14:34:52Z</time>
      </trkpt>
      <trkpt lat="48.52413" lon="-2.08187">
        <ele>58</ele>
        <time>2014-09-14T14:35:23Z</time>
      </trkpt>
      <trkpt lat="48.52418" lon="-2.08146">
        <ele>60</ele>
        <time>2014-09-14T14:35:33Z</time>
      </trkpt>
      <trkpt lat="48.52448" lon="-2.08133">
        <ele>62</ele>
        <time>2014-09-14T14:35:44Z</time>
      </trkpt>
      <trkpt lat="48.52494" lon="-2.08136">
        <ele>61</ele>
        <time>2014-09-14T14:35:53Z</time>
      </trkpt>
      <trkpt lat="48.52542" lon="-2.0811">
        <ele>58</ele>
        <time>2014-09-14T14:36:05Z</time>
      </trkpt>
      <trkpt lat="48.52549" lon="-2.08095">
        <ele>58</ele>
        <time>2014-09-14T14:36:09Z</time>
      </trkpt>
      <trkpt lat="48.52549" lon="-2.0809">
        <ele>61</ele>
        <time>2014-09-14T14:38:01Z</time>
      </trkpt>
      <trkpt lat="48.52548" lon="-2.08088">
        <ele>62</ele>
        <time>2014-09-14T14:38:08Z</time>
      </trkpt>
      <trkpt lat="48.52561" lon="-2.08083">
        <ele>65</ele>
        <time>2014-09-14T14:38:41Z</time>
      </trkpt>
      <trkpt lat="48.52625" lon="-2.08045">
        <ele>69</ele>
        <time>2014-09-14T14:39:11Z</time>
      </trkpt>
      <trkpt lat="48.52686" lon="-2.08027">
        <ele>71</ele>
        <time>2014-09-14T14:39:41Z</time>
      </trkpt>
      <trkpt lat="48.52707" lon="-2.08035">
        <ele>73</ele>
        <time>2014-09-14T14:39:51Z</time>
      </trkpt>
      <trkpt lat="48.52763" lon="-2.08069">
        <ele>72</ele>
        <time>2014-09-14T14:40:11Z</time>
      </trkpt>
      <trkpt lat="48.52831" lon="-2.08071">
        <ele>71</ele>
        <time>2014-09-14T14:40:31Z</time>
      </trkpt>
      <trkpt lat="48.52914" lon="-2.08072">
        <ele>71</ele>
        <time>2014-09-14T14:40:51Z</time>
      </trkpt>
      <trkpt lat="48.52977" lon="-2.08064">
        <ele>71</ele>
        <time>2014-09-14T14:41:08Z</time>
      </trkpt>
      <trkpt lat="48.52988" lon="-2.08064">
        <ele>73</ele>
        <time>2014-09-14T14:41:11Z</time>
      </trkpt>
      <trkpt lat="48.53074" lon="-2.08072">
        <ele>70</ele>
        <time>2014-09-14T14:41:31Z</time>
      </trkpt>
      <trkpt lat="48.53143" lon="-2.08087">
        <ele>68</ele>
        <time>2014-09-14T14:41:49Z</time>
      </trkpt>
      <trkpt lat="48.53159" lon="-2.0809">
        <ele>69</ele>
        <time>2014-09-14T14:41:54Z</time>
      </trkpt>
      <trkpt lat="48.53254" lon="-2.08101">
        <ele>72</ele>
        <time>2014-09-14T14:42:23Z</time>
      </trkpt>
      <trkpt lat="48.53286" lon="-2.08102">
        <ele>73</ele>
        <time>2014-09-14T14:42:33Z</time>
      </trkpt>
      <trkpt lat="48.53372" lon="-2.08048">
        <ele>75</ele>
        <time>2014-09-14T14:43:03Z</time>
      </trkpt>
      <trkpt lat="48.53462" lon="-2.08004">
        <ele>77</ele>
        <time>2014-09-14T14:43:33Z</time>
      </trkpt>
      <trkpt lat="48.53556" lon="-2.07953">
        <ele>80</ele>
        <time>2014-09-14T14:44:03Z</time>
      </trkpt>
      <trkpt lat="48.53647" lon="-2.07936">
        <ele>79</ele>
        <time>2014-09-14T14:44:33Z</time>
      </trkpt>
      <trkpt lat="48.5368" lon="-2.07943">
        <ele>76</ele>
        <time>2014-09-14T14:44:43Z</time>
      </trkpt>
      <trkpt lat="48.53825" lon="-2.07972">
        <ele>73</ele>
        <time>2014-09-14T14:45:13Z</time>
      </trkpt>
      <trkpt lat="48.53983" lon="-2.08004">
        <ele>72</ele>
        <time>2014-09-14T14:45:43Z</time>
      </trkpt>
      <trkpt lat="48.54002" lon="-2.08008">
        <ele>72</ele>
        <time>2014-09-14T14:45:47Z</time>
      </trkpt>
      <trkpt lat="48.54063" lon="-2.08012">
        <ele>72</ele>
        <time>2014-09-14T14:45:59Z</time>
      </trkpt>
      <trkpt lat="48.54208" lon="-2.07956">
        <ele>63</ele>
        <time>2014-09-14T14:46:37Z</time>
      </trkpt>
      <trkpt lat="48.54252" lon="-2.07958">
        <ele>63</ele>
        <time>2014-09-14T14:46:47Z</time>
      </trkpt>
      <trkpt lat="48.54356" lon="-2.07988">
        <ele>60</ele>
        <time>2014-09-14T14:47:09Z</time>
      </trkpt>
      <trkpt lat="48.54458" lon="-2.08038">
        <ele>62</ele>
        <time>2014-09-14T14:47:34Z</time>
      </trkpt>
      <trkpt lat="48.54497" lon="-2.08039">
        <ele>61</ele>
        <time>2014-09-14T14:47:44Z</time>
      </trkpt>
      <trkpt lat="48.54501" lon="-2.08049">
        <ele>61</ele>
        <time>2014-09-14T14:47:46Z</time>
      </trkpt>
      <trkpt lat="48.545" lon="-2.08068">
        <ele>62</ele>
        <time>2014-09-14T14:47:49Z</time>
      </trkpt>
      <trkpt lat="48.54499" lon="-2.08074">
        <ele>63</ele>
        <time>2014-09-14T14:47:50Z</time>
      </trkpt>
      <trkpt lat="48.54485" lon="-2.0818">
        <ele>65</ele>
        <time>2014-09-14T14:48:08Z</time>
      </trkpt>
      <trkpt lat="48.54506" lon="-2.08228">
        <ele>64</ele>
        <time>2014-09-14T14:48:18Z</time>
      </trkpt>
      <trkpt lat="48.54547" lon="-2.08254">
        <ele>63</ele>
        <time>2014-09-14T14:48:28Z</time>
      </trkpt>
      <trkpt lat="48.54658" lon="-2.0829">
        <ele>62</ele>
        <time>2014-09-14T14:48:58Z</time>
      </trkpt>
      <trkpt lat="48.54776" lon="-2.08315">
        <ele>60</ele>
        <time>2014-09-14T14:49:28Z</time>
      </trkpt>
      <trkpt lat="48.54782" lon="-2.08324">
        <ele>60</ele>
        <time>2014-09-14T14:49:30Z</time>
      </trkpt>
      <trkpt lat="48.54816" lon="-2.08448">
        <ele>62</ele>
        <time>2014-09-14T14:49:50Z</time>
      </trkpt>
      <trkpt lat="48.54824" lon="-2.08682">
        <ele>58</ele>
        <time>2014-09-14T14:50:20Z</time>
      </trkpt>
      <trkpt lat="48.54828" lon="-2.0876">
        <ele>57</ele>
        <time>2014-09-14T14:50:30Z</time>
      </trkpt>
      <trkpt lat="48.54817" lon="-2.08891">
        <ele>57</ele>
        <time>2014-09-14T14:50:49Z</time>
      </trkpt>
      <trkpt lat="48.54804" lon="-2.09047">
        <ele>63</ele>
        <time>2014-09-14T14:51:12Z</time>
      </trkpt>
      <trkpt lat="48.54835" lon="-2.09088">
        <ele>62</ele>
        <time>2014-09-14T14:51:23Z</time>
      </trkpt>
      <trkpt lat="48.54869" lon="-2.09108">
        <ele>62</ele>
        <time>2014-09-14T14:51:33Z</time>
      </trkpt>
      <trkpt lat="48.54969" lon="-2.09163">
        <ele>67</ele>
        <time>2014-09-14T14:52:03Z</time>
      </trkpt>
      <trkpt lat="48.55097" lon="-2.09237">
        <ele>64</ele>
        <time>2014-09-14T14:52:33Z</time>
      </trkpt>
      <trkpt lat="48.55171" lon="-2.0933">
        <ele>63</ele>
        <time>2014-09-14T14:52:54Z</time>
      </trkpt>
      <trkpt lat="48.55243" lon="-2.09527">
        <ele>65</ele>
        <time>2014-09-14T14:53:24Z</time>
      </trkpt>
      <trkpt lat="48.55259" lon="-2.09605">
        <ele>66</ele>
        <time>2014-09-14T14:53:35Z</time>
      </trkpt>
      <trkpt lat="48.55232" lon="-2.09741">
        <ele>62</ele>
        <time>2014-09-14T14:53:52Z</time>
      </trkpt>
      <trkpt lat="48.55224" lon="-2.09961">
        <ele>59</ele>
        <time>2014-09-14T14:54:15Z</time>
      </trkpt>
      <trkpt lat="48.55175" lon="-2.10231">
        <ele>58</ele>
        <time>2014-09-14T14:54:45Z</time>
      </trkpt>
      <trkpt lat="48.55109" lon="-2.10506">
        <ele>51</ele>
        <time>2014-09-14T14:55:15Z</time>
      </trkpt>
      <trkpt lat="48.55034" lon="-2.10795">
        <ele>44</ele>
        <time>2014-09-14T14:55:45Z</time>
      </trkpt>
      <trkpt lat="48.55011" lon="-2.10869">
        <ele>44</ele>
        <time>2014-09-14T14:56:03Z</time>
      </trkpt>
      <trkpt lat="48.54988" lon="-2.11021">
        <ele>46</ele>
        <time>2014-09-14T14:56:33Z</time>
      </trkpt>
      <trkpt lat="48.54953" lon="-2.11173">
        <ele>47</ele>
        <time>2014-09-14T14:57:03Z</time>
      </trkpt>
      <trkpt lat="48.5492" lon="-2.11343">
        <ele>44</ele>
        <time>2014-09-14T14:57:33Z</time>
      </trkpt>
      <trkpt lat="48.54917" lon="-2.11362">
        <ele>46</ele>
        <time>2014-09-14T14:57:36Z</time>
      </trkpt>
      <trkpt lat="48.54856" lon="-2.11529">
        <ele>48</ele>
        <time>2014-09-14T14:58:06Z</time>
      </trkpt>
      <trkpt lat="48.54814" lon="-2.11625">
        <ele>46</ele>
        <time>2014-09-14T14:58:26Z</time>
      </trkpt>
      <trkpt lat="48.54832" lon="-2.11643">
        <ele>47</ele>
        <time>2014-09-14T14:58:34Z</time>
      </trkpt>
      <trkpt lat="48.54883" lon="-2.11642">
        <ele>44</ele>
        <time>2014-09-14T14:58:46Z</time>
      </trkpt>
      <trkpt lat="48.5498" lon="-2.11687">
        <ele>44</ele>
        <time>2014-09-14T14:59:07Z</time>
      </trkpt>
      <trkpt lat="48.55099" lon="-2.11789">
        <ele>44</ele>
        <time>2014-09-14T14:59:34Z</time>
      </trkpt>
      <trkpt lat="48.55215" lon="-2.11847">
        <ele>45</ele>
        <time>2014-09-14T14:59:59Z</time>
      </trkpt>
      <trkpt lat="48.55291" lon="-2.11885">
        <ele>45</ele>
        <time>2014-09-14T15:00:17Z</time>
      </trkpt>
      <trkpt lat="48.553" lon="-2.11892">
        <ele>47</ele>
        <time>2014-09-14T15:00:19Z</time>
      </trkpt>
      <trkpt lat="48.55338" lon="-2.11987">
        <ele>50</ele>
        <time>2014-09-14T15:00:36Z</time>
      </trkpt>
      <trkpt lat="48.55389" lon="-2.12108">
        <ele>43</ele>
        <time>2014-09-14T15:00:58Z</time>
      </trkpt>
      <trkpt lat="48.55459" lon="-2.12224">
        <ele>41</ele>
        <time>2014-09-14T15:01:18Z</time>
      </trkpt>
      <trkpt lat="48.55552" lon="-2.12341">
        <ele>44</ele>
        <time>2014-09-14T15:01:38Z</time>
      </trkpt>
      <trkpt lat="48.55643" lon="-2.12482">
        <ele>37</ele>
        <time>2014-09-14T15:01:58Z</time>
      </trkpt>
      <trkpt lat="48.55662" lon="-2.12533">
        <ele>37</ele>
        <time>2014-09-14T15:02:08Z</time>
      </trkpt>
      <trkpt lat="48.55624" lon="-2.12717">
        <ele>38</ele>
        <time>2014-09-14T15:02:30Z</time>
      </trkpt>
      <trkpt lat="48.55569" lon="-2.12886">
        <ele>35</ele>
        <time>2014-09-14T15:02:51Z</time>
      </trkpt>
      <trkpt lat="48.55543" lon="-2.13218">
        <ele>30</ele>
        <time>2014-09-14T15:03:21Z</time>
      </trkpt>
      <trkpt lat="48.55542" lon="-2.13234">
        <ele>32</ele>
        <time>2014-09-14T15:03:23Z</time>
      </trkpt>
      <trkpt lat="48.55541" lon="-2.1325">
        <ele>34</ele>
        <time>2014-09-14T15:03:25Z</time>
      </trkpt>
      <trkpt lat="48.55538" lon="-2.13257">
        <ele>32</ele>
        <time>2014-09-14T15:03:26Z</time>
      </trkpt>
      <trkpt lat="48.55502" lon="-2.13408">
        <ele>33</ele>
        <time>2014-09-14T15:03:45Z</time>
      </trkpt>
      <trkpt lat="48.55492" lon="-2.13416">
        <ele>33</ele>
        <time>2014-09-14T15:03:47Z</time>
      </trkpt>
      <trkpt lat="48.5544" lon="-2.13443">
        <ele>28</ele>
        <time>2014-09-14T15:03:57Z</time>
      </trkpt>
      <trkpt lat="48.55364" lon="-2.13647">
        <ele>32</ele>
        <time>2014-09-14T15:04:26Z</time>
      </trkpt>
      <trkpt lat="48.55343" lon="-2.13749">
        <ele>34</ele>
        <time>2014-09-14T15:04:40Z</time>
      </trkpt>
      <trkpt lat="48.55339" lon="-2.13751">
        <ele>34</ele>
        <time>2014-09-14T15:04:41Z</time>
      </trkpt>
      <trkpt lat="48.55292" lon="-2.13876">
        <ele>29</ele>
        <time>2014-09-14T15:05:01Z</time>
      </trkpt>
      <trkpt lat="48.55298" lon="-2.13888">
        <ele>29</ele>
        <time>2014-09-14T15:05:03Z</time>
      </trkpt>
      <trkpt lat="48.55361" lon="-2.13902">
        <ele>32</ele>
        <time>2014-09-14T15:05:15Z</time>
      </trkpt>
      <trkpt lat="48.55521" lon="-2.1399">
        <ele>31</ele>
        <time>2014-09-14T15:05:45Z</time>
      </trkpt>
      <trkpt lat="48.55525" lon="-2.13993">
        <ele>32</ele>
        <time>2014-09-14T15:05:46Z</time>
      </trkpt>
      <trkpt lat="48.55529" lon="-2.14005">
        <ele>31</ele>
        <time>2014-09-14T15:05:48Z</time>
      </trkpt>
      <trkpt lat="48.55529" lon="-2.14093">
        <ele>27</ele>
        <time>2014-09-14T15:05:57Z</time>
      </trkpt>
      <trkpt lat="48.55581" lon="-2.14377">
        <ele>21</ele>
        <time>2014-09-14T15:06:16Z</time>
      </trkpt>
      <trkpt lat="48.55592" lon="-2.14395">
        <ele>22</ele>
        <time>2014-09-14T15:06:18Z</time>
      </trkpt>
      <trkpt lat="48.55704" lon="-2.14543">
        <ele>23</ele>
        <time>2014-09-14T15:06:42Z</time>
      </trkpt>
      <trkpt lat="48.55712" lon="-2.14561">
        <ele>26</ele>
        <time>2014-09-14T15:06:45Z</time>
      </trkpt>
      <trkpt lat="48.5571" lon="-2.14567">
        <ele>24</ele>
        <time>2014-09-14T15:06:46Z</time>
      </trkpt>
      <trkpt lat="48.55713" lon="-2.14596">
        <ele>26</ele>
        <time>2014-09-14T15:06:51Z</time>
      </trkpt>
      <trkpt lat="48.55722" lon="-2.14681">
        <ele>29</ele>
        <time>2014-09-14T15:07:05Z</time>
      </trkpt>
      <trkpt lat="48.55735" lon="-2.14801">
        <ele>34</ele>
        <time>2014-09-14T15:07:34Z</time>
      </trkpt>
      <trkpt lat="48.55736" lon="-2.14799">
        <ele>35</ele>
        <time>2014-09-14T15:07:35Z</time>
      </trkpt>
      <trkpt lat="48.55734" lon="-2.14795">
        <ele>35</ele>
        <time>2014-09-14T15:07:37Z</time>
      </trkpt>
      <trkpt lat="48.55731" lon="-2.14796">
        <ele>34</ele>
        <time>2014-09-14T15:07:39Z</time>
      </trkpt>
      <trkpt lat="48.55732" lon="-2.14799">
        <ele>35</ele>
        <time>2014-09-14T15:07:41Z</time>
      </trkpt>
      <trkpt lat="48.55734" lon="-2.14798">
        <ele>34</ele>
        <time>2014-09-14T15:07:42Z</time>
      </trkpt>
      <trkpt lat="48.55735" lon="-2.14794">
        <ele>34</ele>
        <time>2014-09-14T15:07:44Z</time>
      </trkpt>
      <trkpt lat="48.55746" lon="-2.14885">
        <ele>35</ele>
        <time>2014-09-14T15:08:14Z</time>
      </trkpt>
      <trkpt lat="48.55782" lon="-2.15054">
        <ele>31</ele>
        <time>2014-09-14T15:08:41Z</time>
      </trkpt>
      <trkpt lat="48.55841" lon="-2.15209">
        <ele>29</ele>
        <time>2014-09-14T15:09:00Z</time>
      </trkpt>
      <trkpt lat="48.55934" lon="-2.15337">
        <ele>23</ele>
        <time>2014-09-14T15:09:20Z</time>
      </trkpt>
      <trkpt lat="48.56005" lon="-2.15502">
        <ele>14</ele>
        <time>2014-09-14T15:09:40Z</time>
      </trkpt>
      <trkpt lat="48.56089" lon="-2.15648">
        <ele>12</ele>
        <time>2014-09-14T15:10:00Z</time>
      </trkpt>
      <trkpt lat="48.56132" lon="-2.15819">
        <ele>12</ele>
        <time>2014-09-14T15:10:19Z</time>
      </trkpt>
      <trkpt lat="48.5613" lon="-2.16028">
        <ele>12</ele>
        <time>2014-09-14T15:10:40Z</time>
      </trkpt>
      <trkpt lat="48.5613" lon="-2.163">
        <ele>12</ele>
        <time>2014-09-14T15:11:10Z</time>
      </trkpt>
      <trkpt lat="48.56135" lon="-2.16416">
        <ele>12</ele>
        <time>2014-09-14T15:11:28Z</time>
      </trkpt>
      <trkpt lat="48.56138" lon="-2.16419">
        <ele>12</ele>
        <time>2014-09-14T15:11:29Z</time>
      </trkpt>
      <trkpt lat="48.56142" lon="-2.16421">
        <ele>11</ele>
        <time>2014-09-14T15:11:30Z</time>
      </trkpt>
      <trkpt lat="48.56167" lon="-2.16416">
        <ele>11</ele>
        <time>2014-09-14T15:11:36Z</time>
      </trkpt>
      <trkpt lat="48.56225" lon="-2.16396">
        <ele>8</ele>
        <time>2014-09-14T15:11:49Z</time>
      </trkpt>
      <trkpt lat="48.56364" lon="-2.1643">
        <ele>9</ele>
        <time>2014-09-14T15:12:18Z</time>
      </trkpt>
      <trkpt lat="48.56517" lon="-2.16451">
        <ele>13</ele>
        <time>2014-09-14T15:12:48Z</time>
      </trkpt>
      <trkpt lat="48.56542" lon="-2.16456">
        <ele>11</ele>
        <time>2014-09-14T15:12:53Z</time>
      </trkpt>
      <trkpt lat="48.56612" lon="-2.16484">
        <ele>11</ele>
        <time>2014-09-14T15:13:07Z</time>
      </trkpt>
      <trkpt lat="48.56752" lon="-2.16605">
        <ele>10</ele>
        <time>2014-09-14T15:13:38Z</time>
      </trkpt>
      <trkpt lat="48.56884" lon="-2.16722">
        <ele>7</ele>
        <time>2014-09-14T15:14:08Z</time>
      </trkpt>
      <trkpt lat="48.56979" lon="-2.1685">
        <ele>9</ele>
        <time>2014-09-14T15:14:36Z</time>
      </trkpt>
      <trkpt lat="48.56983" lon="-2.16992">
        <ele>9</ele>
        <time>2014-09-14T15:14:57Z</time>
      </trkpt>
      <trkpt lat="48.56981" lon="-2.17189">
        <ele>7</ele>
        <time>2014-09-14T15:15:27Z</time>
      </trkpt>
      <trkpt lat="48.5698" lon="-2.17345">
        <ele>7</ele>
        <time>2014-09-14T15:15:57Z</time>
      </trkpt>
      <trkpt lat="48.5698" lon="-2.1735">
        <ele>8</ele>
        <time>2014-09-14T15:15:58Z</time>
      </trkpt>
      <trkpt lat="48.56987" lon="-2.1739">
        <ele>12</ele>
        <time>2014-09-14T15:16:06Z</time>
      </trkpt>
      <trkpt lat="48.57018" lon="-2.17425">
        <ele>12</ele>
        <time>2014-09-14T15:16:19Z</time>
      </trkpt>
      <trkpt lat="48.5705" lon="-2.17436">
        <ele>14</ele>
        <time>2014-09-14T15:16:29Z</time>
      </trkpt>
      <trkpt lat="48.57078" lon="-2.17446">
        <ele>18</ele>
        <time>2014-09-14T15:16:38Z</time>
      </trkpt>
      <trkpt lat="48.57178" lon="-2.17484">
        <ele>14</ele>
        <time>2014-09-14T15:17:15Z</time>
      </trkpt>
      <trkpt lat="48.5718" lon="-2.17486">
        <ele>15</ele>
        <time>2014-09-14T15:17:16Z</time>
      </trkpt>
      <trkpt lat="48.572" lon="-2.17497">
        <ele>17</ele>
        <time>2014-09-14T15:17:25Z</time>
      </trkpt>
      <trkpt lat="48.57207" lon="-2.175">
        <ele>19</ele>
        <time>2014-09-14T15:17:28Z</time>
      </trkpt>
      <trkpt lat="48.57219" lon="-2.17505">
        <ele>21</ele>
        <time>2014-09-14T15:17:32Z</time>
      </trkpt>
      <trkpt lat="48.57265" lon="-2.17528">
        <ele>23</ele>
        <time>2014-09-14T15:17:50Z</time>
      </trkpt>
      <trkpt lat="48.57303" lon="-2.17537">
        <ele>24</ele>
        <time>2014-09-14T15:18:05Z</time>
      </trkpt>
      <trkpt lat="48.57306" lon="-2.17538">
        <ele>26</ele>
        <time>2014-09-14T15:18:06Z</time>
      </trkpt>
      <trkpt lat="48.57317" lon="-2.17541">
        <ele>29</ele>
        <time>2014-09-14T15:18:10Z</time>
      </trkpt>
      <trkpt lat="48.57349" lon="-2.17544">
        <ele>29</ele>
        <time>2014-09-14T15:18:21Z</time>
      </trkpt>
      <trkpt lat="48.57359" lon="-2.1754">
        <ele>30</ele>
        <time>2014-09-14T15:18:25Z</time>
      </trkpt>
      <trkpt lat="48.57442" lon="-2.17546">
        <ele>24</ele>
        <time>2014-09-14T15:18:55Z</time>
      </trkpt>
      <trkpt lat="48.5752" lon="-2.17552">
        <ele>21</ele>
        <time>2014-09-14T15:19:22Z</time>
      </trkpt>
      <trkpt lat="48.57571" lon="-2.1764">
        <ele>24</ele>
        <time>2014-09-14T15:19:36Z</time>
      </trkpt>
      <trkpt lat="48.57583" lon="-2.17659">
        <ele>24</ele>
        <time>2014-09-14T15:19:38Z</time>
      </trkpt>
      <trkpt lat="48.57586" lon="-2.17683">
        <ele>24</ele>
        <time>2014-09-14T15:19:40Z</time>
      </trkpt>
      <trkpt lat="48.57594" lon="-2.17706">
        <ele>27</ele>
        <time>2014-09-14T15:19:42Z</time>
      </trkpt>
      <trkpt lat="48.57646" lon="-2.18092">
        <ele>18</ele>
        <time>2014-09-14T15:20:12Z</time>
      </trkpt>
      <trkpt lat="48.57679" lon="-2.18191">
        <ele>20</ele>
        <time>2014-09-14T15:20:22Z</time>
      </trkpt>
      <trkpt lat="48.57801" lon="-2.18406">
        <ele>28</ele>
        <time>2014-09-14T15:20:52Z</time>
      </trkpt>
      <trkpt lat="48.57809" lon="-2.18419">
        <ele>28</ele>
        <time>2014-09-14T15:20:55Z</time>
      </trkpt>
      <trkpt lat="48.57815" lon="-2.18422">
        <ele>29</ele>
        <time>2014-09-14T15:20:56Z</time>
      </trkpt>
      <trkpt lat="48.57885" lon="-2.18523">
        <ele>18</ele>
        <time>2014-09-14T15:21:30Z</time>
      </trkpt>
      <trkpt lat="48.57888" lon="-2.18526">
        <ele>18</ele>
        <time>2014-09-14T15:21:31Z</time>
      </trkpt>
      <trkpt lat="48.57966" lon="-2.18623">
        <ele>18</ele>
        <time>2014-09-14T15:22:01Z</time>
      </trkpt>
      <trkpt lat="48.58021" lon="-2.18658">
        <ele>19</ele>
        <time>2014-09-14T15:22:15Z</time>
      </trkpt>
      <trkpt lat="48.58029" lon="-2.18664">
        <ele>20</ele>
        <time>2014-09-14T15:22:17Z</time>
      </trkpt>
      <trkpt lat="48.58137" lon="-2.18756">
        <ele>21</ele>
        <time>2014-09-14T15:22:47Z</time>
      </trkpt>
      <trkpt lat="48.58198" lon="-2.18834">
        <ele>20</ele>
        <time>2014-09-14T15:23:04Z</time>
      </trkpt>
      <trkpt lat="48.58266" lon="-2.18923">
        <ele>20</ele>
        <time>2014-09-14T15:23:20Z</time>
      </trkpt>
      <trkpt lat="48.58301" lon="-2.18942">
        <ele>21</ele>
        <time>2014-09-14T15:23:26Z</time>
      </trkpt>
      <trkpt lat="48.58461" lon="-2.18996">
        <ele>21</ele>
        <time>2014-09-14T15:23:56Z</time>
      </trkpt>
      <trkpt lat="48.58483" lon="-2.19003">
        <ele>22</ele>
        <time>2014-09-14T15:24:00Z</time>
      </trkpt>
      <trkpt lat="48.58673" lon="-2.19094">
        <ele>17</ele>
        <time>2014-09-14T15:24:30Z</time>
      </trkpt>
      <trkpt lat="48.58729" lon="-2.19123">
        <ele>16</ele>
        <time>2014-09-14T15:24:37Z</time>
      </trkpt>
      <trkpt lat="48.58967" lon="-2.19158">
        <ele>13</ele>
        <time>2014-09-14T15:25:07Z</time>
      </trkpt>
      <trkpt lat="48.59128" lon="-2.19183">
        <ele>15</ele>
        <time>2014-09-14T15:25:37Z</time>
      </trkpt>
      <trkpt lat="48.59223" lon="-2.19142">
        <ele>10</ele>
        <time>2014-09-14T15:26:07Z</time>
      </trkpt>
      <trkpt lat="48.59233" lon="-2.19112">
        <ele>11</ele>
        <time>2014-09-14T15:26:13Z</time>
      </trkpt>
      <trkpt lat="48.59253" lon="-2.19056">
        <ele>14</ele>
        <time>2014-09-14T15:26:23Z</time>
      </trkpt>
      <trkpt lat="48.59257" lon="-2.19048">
        <ele>14</ele>
        <time>2014-09-14T15:26:25Z</time>
      </trkpt>
      <trkpt lat="48.59274" lon="-2.19008">
        <ele>13</ele>
        <time>2014-09-14T15:26:32Z</time>
      </trkpt>
      <trkpt lat="48.59328" lon="-2.1893">
        <ele>18</ele>
        <time>2014-09-14T15:26:51Z</time>
      </trkpt>
      <trkpt lat="48.59332" lon="-2.18928">
        <ele>21</ele>
        <time>2014-09-14T15:26:52Z</time>
      </trkpt>
      <trkpt lat="48.59422" lon="-2.18853">
        <ele>19</ele>
        <time>2014-09-14T15:27:22Z</time>
      </trkpt>
      <trkpt lat="48.59443" lon="-2.1883">
        <ele>19</ele>
        <time>2014-09-14T15:27:30Z</time>
      </trkpt>
      <trkpt lat="48.59512" lon="-2.1875">
        <ele>18</ele>
        <time>2014-09-14T15:28:01Z</time>
      </trkpt>
      <trkpt lat="48.5958" lon="-2.18705">
        <ele>20</ele>
        <time>2014-09-14T15:28:31Z</time>
      </trkpt>
      <trkpt lat="48.59655" lon="-2.18698">
        <ele>22</ele>
        <time>2014-09-14T15:28:51Z</time>
      </trkpt>
      <trkpt lat="48.59754" lon="-2.18692">
        <ele>25</ele>
        <time>2014-09-14T15:29:21Z</time>
      </trkpt>
      <trkpt lat="48.59782" lon="-2.1869">
        <ele>20</ele>
        <time>2014-09-14T15:29:42Z</time>
      </trkpt>
      <trkpt lat="48.59783" lon="-2.18688">
        <ele>21</ele>
        <time>2014-09-14T15:29:47Z</time>
      </trkpt>
      <trkpt lat="48.59792" lon="-2.18684">
        <ele>19</ele>
        <time>2014-09-14T15:30:59Z</time>
      </trkpt>
      <trkpt lat="48.59835" lon="-2.18676">
        <ele>14</ele>
        <time>2014-09-14T15:31:38Z</time>
      </trkpt>
      <trkpt lat="48.59845" lon="-2.18677">
        <ele>17</ele>
        <time>2014-09-14T15:31:46Z</time>
      </trkpt>
      <trkpt lat="48.59848" lon="-2.18678">
        <ele>20</ele>
        <time>2014-09-14T15:31:48Z</time>
      </trkpt>
      <trkpt lat="48.59866" lon="-2.18678">
        <ele>25</ele>
        <time>2014-09-14T15:32:00Z</time>
      </trkpt>
      <trkpt lat="48.59877" lon="-2.18682">
        <ele>27</ele>
        <time>2014-09-14T15:32:07Z</time>
      </trkpt>
      <trkpt lat="48.59899" lon="-2.18691">
        <ele>25</ele>
        <time>2014-09-14T15:32:25Z</time>
      </trkpt>
      <trkpt lat="48.5995" lon="-2.187">
        <ele>22</ele>
        <time>2014-09-14T15:32:56Z</time>
      </trkpt>
      <trkpt lat="48.59955" lon="-2.18703">
        <ele>23</ele>
        <time>2014-09-14T15:33:01Z</time>
      </trkpt>
      <trkpt lat="48.59953" lon="-2.18705">
        <ele>26</ele>
        <time>2014-09-14T15:34:16Z</time>
      </trkpt>
      <trkpt lat="48.59953" lon="-2.18707">
        <ele>29</ele>
        <time>2014-09-14T15:34:37Z</time>
      </trkpt>
      <trkpt lat="48.59953" lon="-2.18705">
        <ele>31</ele>
        <time>2014-09-14T15:35:49Z</time>
      </trkpt>
      <trkpt lat="48.59954" lon="-2.18703">
        <ele>31</ele>
        <time>2014-09-14T15:37:13Z</time>
      </trkpt>
      <trkpt lat="48.59955" lon="-2.18702">
        <ele>25</ele>
        <time>2014-09-14T15:44:18Z</time>
      </trkpt>
      <trkpt lat="48.59977" lon="-2.18708">
        <ele>27</ele>
        <time>2014-09-14T15:44:29Z</time>
      </trkpt>
      <trkpt lat="48.60016" lon="-2.18716">
        <ele>31</ele>
        <time>2014-09-14T15:44:42Z</time>
      </trkpt>
      <trkpt lat="48.60043" lon="-2.18717">
        <ele>34</ele>
        <time>2014-09-14T15:44:52Z</time>
      </trkpt>
      <trkpt lat="48.60104" lon="-2.18737">
        <ele>32</ele>
        <time>2014-09-14T15:45:22Z</time>
      </trkpt>
      <trkpt lat="48.60153" lon="-2.18747">
        <ele>31</ele>
        <time>2014-09-14T15:45:42Z</time>
      </trkpt>
      <trkpt lat="48.60259" lon="-2.18775">
        <ele>34</ele>
        <time>2014-09-14T15:46:12Z</time>
      </trkpt>
      <trkpt lat="48.60407" lon="-2.18857">
        <ele>34</ele>
        <time>2014-09-14T15:46:50Z</time>
      </trkpt>
      <trkpt lat="48.6056" lon="-2.1892">
        <ele>21</ele>
        <time>2014-09-14T15:47:30Z</time>
      </trkpt>
      <trkpt lat="48.60582" lon="-2.18923">
        <ele>20</ele>
        <time>2014-09-14T15:47:40Z</time>
      </trkpt>
      <trkpt lat="48.606" lon="-2.18901">
        <ele>18</ele>
        <time>2014-09-14T15:47:50Z</time>
      </trkpt>
      <trkpt lat="48.60605" lon="-2.18884">
        <ele>16</ele>
        <time>2014-09-14T15:48:00Z</time>
      </trkpt>
      <trkpt lat="48.6064" lon="-2.1885">
        <ele>11</ele>
        <time>2014-09-14T15:48:19Z</time>
      </trkpt>
      <trkpt lat="48.60643" lon="-2.18848">
        <ele>11</ele>
        <time>2014-09-14T15:48:23Z</time>
      </trkpt>
      <trkpt lat="48.60646" lon="-2.18848">
        <ele>13</ele>
        <time>2014-09-14T15:48:31Z</time>
      </trkpt>
      <trkpt lat="48.60649" lon="-2.18847">
        <ele>13</ele>
        <time>2014-09-14T15:48:35Z</time>
      </trkpt>
      <trkpt lat="48.60652" lon="-2.18846">
        <ele>15</ele>
        <time>2014-09-14T15:48:38Z</time>
      </trkpt>
      <trkpt lat="48.60653" lon="-2.18848">
        <ele>15</ele>
        <time>2014-09-14T15:48:40Z</time>
      </trkpt>
    </trkseg>
  </trk>
</gpx>